Time;durP1;ratioP1;P1;durP2;ratioP2;P2;SDS_P1;SDS_P2;PMS_P1;PMS_P2;Temp;Humidity;BMP_temperature;BMP_pressure;BME280_temperature;BME280_humidity;BME280_pressure;Samples;Min_cycle;Max_cycle;Signal;HPM_P1;HPM_P2
2021/10/25 00:00:53;;;;;;;37.50;22.85;;;;;;;1.33;100.00;100088.37;2243906;79;21581;-79
2021/10/25 00:03:53;;;;;;;47.55;26.25;;;;;;;1.30;100.00;100089.85;2244125;79;20958;-79
2021/10/25 00:06:54;;;;;;;39.30;23.25;;;;;;;1.29;100.00;100092.06;2244030;79;21108;-79
2021/10/25 00:09:55;;;;;;;42.90;24.63;;;;;;;1.24;100.00;100085.86;2243977;79;21512;-79
2021/10/25 00:12:56;;;;;;;49.75;26.07;;;;;;;1.23;100.00;100087.23;2244003;79;21038;-79
2021/10/25 00:15:57;;;;;;;40.75;22.52;;;;;;;1.19;100.00;100087.02;2243916;79;21045;-79
2021/10/25 00:18:57;;;;;;;45.45;25.80;;;;;;;1.17;100.00;100087.12;2244099;79;20954;-79
2021/10/25 00:21:58;;;;;;;42.80;24.65;;;;;;;1.14;100.00;100084.26;2243850;79;20985;-79
2021/10/25 00:24:59;;;;;;;53.00;26.97;;;;;;;1.11;100.00;100079.74;2243843;79;21002;-79
2021/10/25 00:28:00;;;;;;;45.03;26.20;;;;;;;1.09;100.00;100078.97;2243715;79;20995;-78
2021/10/25 00:31:01;;;;;;;44.27;25.08;;;;;;;1.05;100.00;100079.61;2243849;79;21010;-79
2021/10/25 00:34:01;;;;;;;47.73;25.68;;;;;;;1.03;100.00;100081.92;2243916;79;21010;-79
2021/10/25 00:37:03;;;;;;;42.70;26.00;;;;;;;0.99;100.00;100078.66;2243982;79;20988;-79
2021/10/25 00:40:04;;;;;;;35.63;23.95;;;;;;;0.95;100.00;100077.18;2243684;79;22404;-79
2021/10/25 00:43:05;;;;;;;45.78;28.40;;;;;;;0.94;100.00;100077.27;2243979;79;20950;-79
2021/10/25 00:46:10;;;;;;;44.30;27.35;;;;;;;0.92;100.00;100070.91;2243888;79;20989;-79
2021/10/25 00:49:11;;;;;;;48.00;27.77;;;;;;;0.93;100.00;100075.16;2243853;79;21548;-78
2021/10/25 00:52:12;;;;;;;53.73;27.62;;;;;;;0.93;100.00;100064.00;2243848;79;20950;-79
2021/10/25 00:55:13;;;;;;;49.40;29.80;;;;;;;0.92;100.00;100067.50;2244053;79;21532;-78
2021/10/25 00:58:13;;;;;;;42.98;25.52;;;;;;;0.89;100.00;100060.75;2243946;79;21073;-78
2021/10/25 01:01:15;;;;;;;47.78;28.55;;;;;;;0.89;100.00;100059.45;2243972;79;21544;-79
2021/10/25 01:04:19;;;;;;;45.17;27.85;;;;;;;0.85;100.00;100054.94;2243947;79;21475;-79
2021/10/25 01:07:18;;;;;;;43.98;25.30;;;;;;;0.83;100.00;100046.92;2243529;79;21286;-78
2021/10/25 01:10:19;;;;;;;48.10;27.02;;;;;;;0.80;100.00;100044.03;2243828;79;21027;-78
2021/10/25 01:13:20;;;;;;;43.28;26.62;;;;;;;0.79;100.00;100041.09;2243837;79;21092;-77
2021/10/25 01:16:21;;;;;;;42.93;24.80;;;;;;;0.78;100.00;100042.47;2244040;79;20969;-78
2021/10/25 01:19:22;;;;;;;46.73;26.77;;;;;;;0.77;100.00;100039.06;2243903;79;20974;-78
2021/10/25 01:22:22;;;;;;;43.33;25.10;;;;;;;0.76;100.00;100027.55;2243946;79;21053;-78
2021/10/25 01:25:23;;;;;;;42.53;24.75;;;;;;;0.76;100.00;100024.97;2243941;79;21493;-78
2021/10/25 01:28:24;;;;;;;39.38;23.25;;;;;;;0.76;100.00;100024.97;2243900;79;20998;-78
2021/10/25 01:31:25;;;;;;;42.58;22.37;;;;;;;0.74;100.00;100028.93;2243956;79;21492;-78
2021/10/25 01:34:26;;;;;;;37.85;22.27;;;;;;;0.72;100.00;100017.84;2243913;79;20958;-78
2021/10/25 01:37:27;;;;;;;44.25;26.35;;;;;;;0.73;100.00;100016.95;2243814;79;20992;-78
2021/10/25 01:40:27;;;;;;;40.15;23.38;;;;;;;0.73;100.00;100010.94;2245110;79;21501;-78
2021/10/25 01:43:28;;;;;;;40.17;25.12;;;;;;;0.74;100.00;100015.20;2247050;79;21036;-79
2021/10/25 01:46:29;;;;;;;37.60;24.65;;;;;;;0.69;100.00;100012.88;2247578;79;20969;-78
2021/10/25 01:49:30;;;;;;;42.55;24.85;;;;;;;0.66;100.00;100016.92;2247941;79;20981;-78
2021/10/25 01:52:31;;;;;;;39.65;24.80;;;;;;;0.63;100.00;100014.48;2247936;79;21061;-78
2021/10/25 01:55:32;;;;;;;37.58;23.42;;;;;;;0.60;100.00;100008.69;2247682;79;20981;-78
2021/10/25 01:58:32;;;;;;;38.75;23.85;;;;;;;0.59;100.00;100010.89;2247653;79;21027;-78
2021/10/25 02:01:33;;;;;;;46.70;24.98;;;;;;;0.56;100.00;100009.33;2247663;79;20978;-78
2021/10/25 02:04:34;;;;;;;31.77;21.65;;;;;;;0.55;100.00;100007.67;2247775;79;20969;-78
2021/10/25 02:07:35;;;;;;;36.42;22.48;;;;;;;0.54;100.00;99999.53;2247764;79;21045;-78
2021/10/25 02:10:36;;;;;;;40.75;22.95;;;;;;;0.52;100.00;99994.92;2247894;79;21441;-78
2021/10/25 02:13:36;;;;;;;35.20;22.77;;;;;;;0.52;100.00;99998.80;2247673;79;20962;-78
2021/10/25 02:16:37;;;;;;;43.85;23.83;;;;;;;0.48;100.00;99999.43;2247788;79;21014;-78
2021/10/25 02:19:38;;;;;;;30.40;20.37;;;;;;;0.47;100.00;99997.77;2247718;79;21533;-78
2021/10/25 02:22:39;;;;;;;40.30;22.62;;;;;;;0.45;100.00;100001.33;2247764;79;21477;-79
2021/10/25 02:25:40;;;;;;;34.00;20.90;;;;;;;0.42;100.00;99997.64;2247759;79;21279;-78
2021/10/25 02:28:41;;;;;;;38.75;22.58;;;;;;;0.37;100.00;99989.34;2247668;79;21526;-79
2021/10/25 02:31:42;;;;;;;33.73;20.60;;;;;;;0.32;100.00;99993.45;2247659;79;21501;-79
2021/10/25 02:34:45;;;;;;;34.90;21.80;;;;;;;0.33;100.00;99990.41;2247997;79;20982;-79
2021/10/25 02:37:46;;;;;;;35.43;22.22;;;;;;;0.30;100.00;99991.42;2247728;79;21073;-78
2021/10/25 02:40:47;;;;;;;32.58;20.15;;;;;;;0.27;100.00;99987.27;2246015;79;21029;-79
2021/10/25 02:43:48;;;;;;;31.62;20.75;;;;;;;0.27;100.00;99983.41;2243597;79;21089;-78
2021/10/25 02:46:49;;;;;;;45.45;23.77;;;;;;;0.27;100.00;99981.27;2243866;79;21022;-78
2021/10/25 02:49:50;;;;;;;38.45;23.10;;;;;;;0.25;100.00;99982.64;2244215;79;21037;-78
2021/10/25 02:52:51;;;;;;;40.15;23.47;;;;;;;0.24;100.00;99976.28;2243966;79;20954;-78
2021/10/25 02:55:52;;;;;;;37.00;21.73;;;;;;;0.24;100.00;99975.00;2244079;79;20998;-79
2021/10/25 02:58:53;;;;;;;41.92;22.15;;;;;;;0.22;100.00;99976.38;2243880;79;21113;-78
2021/10/25 03:01:54;;;;;;;45.75;28.70;;;;;;;0.21;100.00;99972.59;2244103;79;20973;-78
2021/10/25 03:04:55;;;;;;;49.67;30.40;;;;;;;0.21;100.00;99973.42;2243957;79;20986;-78
2021/10/25 03:07:55;;;;;;;43.85;28.05;;;;;;;0.19;100.00;99975.27;2244080;79;20954;-78
2021/10/25 03:10:56;;;;;;;44.05;27.50;;;;;;;0.18;100.00;99971.03;2244079;79;21044;-78
2021/10/25 03:13:57;;;;;;;45.23;27.22;;;;;;;0.15;100.00;99972.46;2244146;79;20970;-78
2021/10/25 03:16:58;;;;;;;39.75;25.40;;;;;;;0.15;100.00;99972.46;2244051;79;21045;-77
2021/10/25 03:19:58;;;;;;;43.78;24.57;;;;;;;0.11;100.00;99968.41;2244153;79;21508;-79
2021/10/25 03:22:59;;;;;;;40.05;24.75;;;;;;;0.08;100.00;99971.58;2244056;79;21017;-79
2021/10/25 03:26:00;;;;;;;38.23;23.47;;;;;;;0.05;100.00;99964.86;2243912;79;21038;-80
2021/10/25 03:29:01;;;;;;;42.25;25.10;;;;;;;0.06;100.00;99965.23;2243984;79;21049;-80
2021/10/25 03:32:02;;;;;;;34.53;21.42;;;;;;;0.05;100.00;99962.74;2244022;79;21023;-80
2021/10/25 03:35:03;;;;;;;41.60;25.10;;;;;;;-0.01;100.00;99964.72;2244028;79;20958;-80
2021/10/25 03:38:05;;;;;;;37.70;23.60;;;;;;;-0.06;100.00;99969.30;2244040;79;21600;-79
2021/10/25 03:41:10;;;;;;;36.98;23.18;;;;;;;-0.12;100.00;99967.05;2245383;79;21523;-79
2021/10/25 03:44:23;;;;;;;39.55;24.57;;;;;;;-0.16;100.00;99968.13;2247912;79;21008;-79
2021/10/25 03:47:29;;;;;;;41.85;25.68;;;;;;;-0.17;100.00;99961.78;2247149;78;21075;-79
2021/10/25 03:50:27;;;;;;;43.20;26.40;;;;;;;-0.16;100.00;99962.16;2246510;78;21081;-79
2021/10/25 03:53:34;;;;;;;44.50;26.05;;;;;;;-0.17;100.00;99958.75;2247588;79;20994;-79
2021/10/25 04:26:27;;;;;;;50.80;32.30;;;;;;;-0.20;100.00;99921.56;2247922;79;21712;-80
2021/10/25 04:29:25;;;;;;;46.28;29.67;;;;;;;-0.21;100.00;99925.05;2246832;79;21021;-80
2021/10/25 04:32:23;;;;;;;53.50;34.70;;;;;;;-0.21;100.00;99922.48;2247864;79;21012;-80
2021/10/25 04:35:24;;;;;;;50.43;33.83;;;;;;;-0.22;100.00;99916.95;2247820;79;20978;-80
2021/10/25 04:38:25;;;;;;;56.35;36.70;;;;;;;-0.24;100.00;99918.80;2247822;79;21108;-79
2021/10/25 04:41:26;;;;;;;59.83;36.08;;;;;;;-0.24;100.00;99915.39;2234202;79;20986;-79
2021/10/25 04:44:29;;;;;;;56.08;31.48;;;;;;;-0.24;100.00;99911.53;2214686;80;20988;-80
2021/10/25 04:47:29;;;;;;;44.33;27.02;;;;;;;-0.25;100.00;99903.44;2214397;80;20970;-81
2021/10/25 04:50:30;;;;;;;49.58;28.92;;;;;;;-0.28;100.00;99904.41;2214574;80;22051;-81
2021/10/25 04:53:31;;;;;;;44.05;25.30;;;;;;;-0.30;100.00;99908.81;2214437;80;21049;-82
2021/10/25 04:56:31;;;;;;;39.63;24.87;;;;;;;-0.29;100.00;99904.03;2214363;80;20977;-82
2021/10/25 04:59:32;;;;;;;41.20;25.48;;;;;;;-0.29;100.00;99895.03;2214132;80;21048;-82
2021/10/25 05:02:33;;;;;;;38.00;24.95;;;;;;;-0.30;100.00;99895.94;2214368;80;21820;-78
2021/10/25 05:05:34;;;;;;;41.68;24.02;;;;;;;-0.31;100.00;99890.42;2214384;80;21326;-78
2021/10/25 05:08:35;;;;;;;43.23;25.60;;;;;;;-0.30;100.00;99886.94;2214323;80;21063;-78
2021/10/25 05:11:36;;;;;;;37.90;23.60;;;;;;;-0.29;100.00;99879.13;2214399;80;21438;-78
2021/10/25 05:14:37;;;;;;;42.33;22.93;;;;;;;-0.29;100.00;99881.70;2216166;80;20977;-80
2021/10/25 05:17:37;;;;;;;56.42;36.20;;;;;;;-0.28;100.00;99869.66;2216414;80;21006;-78
2021/10/25 05:20:38;;;;;;;52.20;35.65;;;;;;;-0.30;100.00;99868.92;2214599;80;21020;-79
2021/10/25 05:23:39;;;;;;;43.70;26.82;;;;;;;-0.26;100.00;99873.46;2214524;80;21044;-79
2021/10/25 05:26:40;;;;;;;40.48;25.00;;;;;;;-0.25;100.00;99877.70;2214342;80;20982;-79
2021/10/25 05:29:41;;;;;;;56.10;34.23;;;;;;;-0.25;100.00;99874.66;2214577;80;21588;-80
2021/10/25 05:32:41;;;;;;;38.38;25.88;;;;;;;-0.24;100.00;99878.89;2214326;80;20939;-79
2021/10/25 05:35:42;;;;;;;46.73;26.65;;;;;;;-0.23;100.00;99883.58;2214561;80;21480;-81
2021/10/25 05:38:43;;;;;;;41.42;26.82;;;;;;;-0.20;100.00;99889.84;2214243;80;21017;-80
2021/10/25 05:41:44;;;;;;;36.83;22.50;;;;;;;-0.16;100.00;99894.76;2203019;79;21022;-80
2021/10/25 05:44:45;;;;;;;40.65;23.80;;;;;;;-0.11;100.00;99890.17;2187331;81;20955;-80
2021/10/25 05:47:49;;;;;;;45.25;25.70;;;;;;;-0.09;100.00;99878.07;2187438;81;21062;-80
2021/10/25 05:50:51;;;;;;;41.58;24.12;;;;;;;-0.05;100.00;99879.55;2187240;81;20963;-80
2021/10/25 05:53:52;;;;;;;43.63;24.90;;;;;;;-0.01;100.00;99884.06;2187349;81;20959;-80
2021/10/25 05:56:53;;;;;;;41.28;24.92;;;;;;;0.05;100.00;99873.89;2187442;81;21080;-80
2021/10/25 05:59:54;;;;;;;39.78;26.52;;;;;;;0.10;100.00;99877.89;2187330;81;21025;-80
2021/10/25 06:02:56;;;;;;;43.58;26.00;;;;;;;0.15;100.00;99882.30;2187334;81;21062;-80
2021/10/25 06:05:57;;;;;;;46.25;27.35;;;;;;;0.22;100.00;99880.23;2187235;81;21002;-80
2021/10/25 06:08:58;;;;;;;42.55;27.10;;;;;;;0.30;100.00;99874.19;2187439;80;20994;-81
2021/10/25 06:12:01;;;;;;;34.92;23.22;;;;;;;0.39;100.00;99878.00;2187259;81;21085;-81
2021/10/25 06:15:06;;;;;;;39.55;24.37;;;;;;;0.49;100.00;99878.67;2186987;81;20943;-80
2021/10/25 06:18:08;;;;;;;38.05;24.55;;;;;;;0.56;100.00;99891.59;2187120;81;21091;-79
2021/10/25 06:21:07;;;;;;;42.53;25.72;;;;;;;0.63;100.00;99895.91;2187444;81;21054;-81
2021/10/25 06:24:08;;;;;;;43.73;23.42;;;;;;;0.71;100.00;99891.61;2187650;81;20979;-80
2021/10/25 06:27:09;;;;;;;36.40;22.42;;;;;;;0.78;100.00;99887.77;2187651;81;21026;-79
2021/10/25 06:30:10;;;;;;;36.33;25.17;;;;;;;0.85;100.00;99887.78;2187581;81;20927;-79
2021/10/25 06:33:11;;;;;;;40.15;25.40;;;;;;;0.92;100.00;99898.12;2187432;81;21554;-79
2021/10/25 06:36:12;;;;;;;42.58;25.60;;;;;;;1.00;100.00;99901.05;2187652;81;20963;-79
2021/10/25 06:39:20;;;;;;;38.90;24.55;;;;;;;1.08;100.00;99893.70;2187507;81;21013;-80
2021/10/25 06:42:16;;;;;;;38.83;24.70;;;;;;;1.14;100.00;99892.52;2199998;79;21001;-80
2021/10/25 06:45:21;;;;;;;38.17;24.65;;;;;;;1.19;100.00;99896.09;2214682;80;21033;-81
2021/10/25 06:48:19;;;;;;;42.03;25.77;;;;;;;1.28;100.00;99903.28;2213538;80;20997;-80
2021/10/25 06:51:20;;;;;;;35.23;23.22;;;;;;;1.37;100.00;99900.16;2214567;80;20962;-81
2021/10/25 06:54:21;;;;;;;38.85;23.47;;;;;;;1.45;100.00;99899.70;2214648;80;21127;-81
2021/10/25 06:57:22;;;;;;;42.15;25.57;;;;;;;1.52;100.00;99890.20;2214614;80;20949;-80
2021/10/25 07:00:23;;;;;;;37.35;24.35;;;;;;;1.57;100.00;99897.22;2214684;80;21068;-81
2021/10/25 07:03:24;;;;;;;37.95;22.90;;;;;;;1.61;100.00;99887.52;2214598;80;20973;-80
2021/10/25 07:06:25;;;;;;;41.70;25.10;;;;;;;1.65;100.00;99899.34;2214406;80;21052;-80
2021/10/25 07:09:25;;;;;;;39.63;25.23;;;;;;;1.70;100.00;99892.95;2214412;80;20961;-80
2021/10/25 07:12:27;;;;;;;36.53;24.63;;;;;;;1.82;100.00;99896.98;2214322;80;21493;-80
2021/10/25 07:15:29;;;;;;;35.20;24.05;;;;;;;1.91;100.00;99892.53;2214219;80;21546;-80
2021/10/25 07:18:44;;;;;;;33.28;23.83;;;;;;;1.99;100.00;99891.12;2214425;80;21062;-80
2021/10/25 08:04:39;;;;;;;34.25;24.57;;;;;;;3.39;100.00;99836.20;2085440;85;21121;-81
2021/10/25 08:10:36;;;;;;;31.10;21.35;;;;;;;3.63;100.00;99835.75;2096185;85;21001;-80
2021/10/25 08:13:36;;;;;;;31.82;21.15;;;;;;;3.76;100.00;99826.67;2095342;85;21166;-80
2021/10/25 08:16:43;;;;;;;30.32;21.50;;;;;;;3.88;100.00;99836.62;2095765;85;21052;-80
2021/10/25 08:19:44;;;;;;;34.90;22.65;;;;;;;3.98;100.00;99839.73;2179002;81;21111;-80
2021/10/25 08:22:45;;;;;;;33.00;22.40;;;;;;;4.09;100.00;99840.25;2163405;82;21508;-80
2021/10/25 08:25:46;;;;;;;31.68;20.88;;;;;;;4.20;100.00;99844.17;2163178;82;20961;-80
2021/10/25 08:28:46;;;;;;;35.98;23.25;;;;;;;4.28;100.00;99835.38;2163277;82;21135;-80
2021/10/25 08:31:58;;;;;;;40.33;26.33;;;;;;;4.33;100.00;99839.41;2163000;82;21052;-80
2021/10/25 08:35:20;;;;;;;39.78;27.75;;;;;;;4.40;100.00;99836.73;2161536;82;20988;-80
2021/10/25 08:41:27;;;;;;;37.00;23.10;;;;;;;4.54;100.00;99840.42;2197405;81;21050;-80
2021/10/25 08:44:28;;;;;;;35.30;21.97;;;;;;;4.65;100.00;99839.14;2206950;81;20968;-80
2021/10/25 08:47:33;;;;;;;33.55;23.15;;;;;;;4.76;100.00;99835.77;2206962;81;21045;-80
2021/10/25 08:50:33;;;;;;;34.15;20.72;;;;;;;4.84;100.00;99831.63;2206318;81;21529;-80
2021/10/25 08:53:34;;;;;;;33.88;20.82;;;;;;;4.95;100.00;99839.10;2207058;80;21614;-80
2021/10/25 08:56:37;;;;;;;29.42;19.75;;;;;;;5.05;100.00;99833.56;2206590;81;21761;-80
2021/10/25 08:59:39;;;;;;;25.60;18.27;;;;;;;5.17;100.00;99836.98;2206743;80;21034;-80
2021/10/25 09:02:41;;;;;;;26.33;19.10;;;;;;;5.28;100.00;99836.50;2206912;81;21061;-80
2021/10/25 09:05:42;;;;;;;28.35;17.37;;;;;;;5.39;100.00;99831.77;2207087;81;21019;-81
2021/10/25 09:08:44;;;;;;;24.90;17.35;;;;;;;5.48;100.00;99832.34;2206833;81;21106;-80
2021/10/25 09:11:45;;;;;;;27.32;19.02;;;;;;;5.61;100.00;99829.63;2207290;80;21013;-80
2021/10/25 09:14:46;;;;;;;23.90;17.00;;;;;;;5.73;100.00;99826.06;2206846;80;20936;-80
2021/10/25 09:17:47;;;;;;;26.80;17.73;;;;;;;5.83;100.00;99814.45;2206855;80;20975;-81
2021/10/25 09:20:49;;;;;;;27.73;16.42;;;;;;;5.97;100.00;99815.05;2207446;81;21678;-81
2021/10/25 09:23:51;;;;;;;26.80;17.32;;;;;;;6.08;100.00;99807.67;2206799;80;21070;-81
2021/10/25 09:26:53;;;;;;;28.47;16.80;;;;;;;6.18;100.00;99803.37;2206865;81;21138;-81
2021/10/25 09:29:59;;;;;;;24.52;15.38;;;;;;;6.31;100.00;99797.16;2206507;81;21050;-81
2021/10/25 09:32:58;;;;;;;22.87;15.58;;;;;;;6.40;100.00;99803.76;2206367;80;21451;-81
2021/10/25 09:36:02;;;;;;;27.82;16.35;;;;;;;6.48;100.00;99798.72;2206816;80;21014;-81
2021/10/25 09:39:09;;;;;;;22.50;15.78;;;;;;;6.59;100.00;99792.66;2206501;81;21007;-81
2021/10/25 09:51:44;;;;;;;21.73;14.38;;;;;;;6.92;100.00;99782.95;2206875;81;21007;-81
2021/10/25 09:54:45;;;;;;;26.57;15.40;;;;;;;6.97;100.00;99786.82;2206864;81;21178;-81
2021/10/25 10:00:47;;;;;;;22.22;14.33;;;;;;;7.16;100.00;99769.62;2206835;81;21062;-81
2021/10/25 10:03:47;;;;;;;22.15;14.40;;;;;;;7.26;100.00;99764.78;2206862;81;21012;-81
2021/10/25 10:06:48;;;;;;;20.35;14.18;;;;;;;7.33;100.00;99759.39;2206906;81;21107;-81
2021/10/25 10:09:49;;;;;;;18.02;13.93;;;;;;;7.43;100.00;99752.08;2206823;81;21015;-81
2021/10/25 10:12:51;;;;;;;18.02;12.70;;;;;;;7.50;100.00;99751.86;2206849;81;21669;-81
2021/10/25 10:15:54;;;;;;;18.30;12.23;;;;;;;7.57;100.00;99745.16;2206707;81;21014;-81
2021/10/25 10:18:54;;;;;;;20.27;12.55;;;;;;;7.65;100.00;99742.22;2206711;80;21034;-81
2021/10/25 10:21:55;;;;;;;16.23;12.28;;;;;;;7.73;100.00;99742.03;2206836;81;21526;-81
2021/10/25 10:24:56;;;;;;;15.45;11.80;;;;;;;7.82;100.00;99741.21;2206885;81;20956;-81
2021/10/25 10:27:57;;;;;;;14.68;11.30;;;;;;;7.89;100.00;99741.83;2206696;81;21558;-81
2021/10/25 10:30:58;;;;;;;19.95;12.88;;;;;;;7.97;100.00;99743.28;2206741;81;20971;-81
2021/10/25 10:34:00;;;;;;;15.00;10.68;;;;;;;8.06;100.00;99737.72;2206703;81;21075;-81
2021/10/25 10:37:01;;;;;;;20.08;12.20;;;;;;;8.14;100.00;99741.77;2206750;81;20982;-81
2021/10/25 10:40:02;;;;;;;15.93;11.00;;;;;;;8.23;100.00;99736.19;2206898;81;20987;-81
2021/10/25 10:43:04;;;;;;;18.48;11.18;;;;;;;8.30;100.00;99735.95;2202326;81;21345;-80
2021/10/25 10:46:13;;;;;;;14.78;10.35;;;;;;;8.37;100.00;99737.56;2196126;81;21058;-81
2021/10/25 10:49:11;;;;;;;16.37;11.78;;;;;;;8.45;100.00;99733.77;2195573;81;21071;-81
2021/10/25 10:52:18;;;;;;;15.08;10.90;;;;;;;8.51;100.00;99725.38;2196383;81;20976;-81
2021/10/25 10:55:15;;;;;;;16.77;11.35;;;;;;;8.58;100.00;99720.39;2195789;81;21025;-81
2021/10/25 11:01:20;;;;;;;15.10;10.55;;;;;;;8.72;100.00;99705.10;2196241;81;21511;-81
2021/10/25 11:04:21;;;;;;;13.55;9.25;;;;;;;8.78;100.00;99707.63;2196065;81;21022;-81
2021/10/25 11:07:22;;;;;;;14.00;10.93;;;;;;;8.82;100.00;99712.41;2196372;81;20998;-81
2021/10/25 11:10:22;;;;;;;17.15;10.58;;;;;;;8.89;100.00;99709.23;2196417;81;21042;-80
2021/10/25 11:13:25;;;;;;;14.38;9.68;;;;;;;8.95;100.00;99702.10;2196853;81;20960;-81
2021/10/25 11:16:36;;;;;;;11.88;8.75;;;;;;;9.01;100.00;99697.13;2196710;81;20995;-81
2021/10/25 11:19:31;;;;;;;12.15;8.50;;;;;;;9.10;100.00;99688.91;2195436;81;21590;-81
2021/10/25 11:22:32;;;;;;;12.90;8.35;;;;;;;9.18;100.00;99679.85;2196650;81;20960;-81
2021/10/25 11:25:33;;;;;;;14.80;9.43;;;;;;;9.18;100.00;99679.85;2196533;81;20998;-81
2021/10/25 11:28:34;;;;;;;11.63;8.38;;;;;;;9.26;100.00;99683.86;2196545;81;20999;-81
2021/10/25 11:31:35;;;;;;;13.45;9.65;;;;;;;9.30;100.00;99681.77;2196631;81;21035;-81
2021/10/25 11:34:37;;;;;;;18.17;10.90;;;;;;;9.34;100.00;99668.27;2196630;81;20936;-81
2021/10/25 11:37:39;;;;;;;11.97;8.75;;;;;;;9.38;99.77;99668.29;2196398;81;21024;-81
2021/10/25 11:40:40;;;;;;;14.18;9.03;;;;;;;9.40;99.34;99667.66;2196511;80;21606;-81
2021/10/25 11:43:41;;;;;;;16.65;11.33;;;;;;;9.45;99.32;99665.09;2196892;81;21074;-81
2021/10/25 11:46:42;;;;;;;14.75;9.65;;;;;;;9.51;100.00;99660.55;2197266;81;21507;-81
2021/10/25 11:49:43;;;;;;;11.85;8.98;;;;;;;9.56;100.00;99668.30;2197350;81;21057;-81
2021/10/25 11:52:46;;;;;;;14.55;9.43;;;;;;;9.61;99.56;99662.63;2197355;81;21066;-81
2021/10/25 11:55:47;;;;;;;12.10;8.13;;;;;;;9.65;100.00;99666.09;2197385;81;21064;-81
2021/10/25 11:58:48;;;;;;;10.95;9.10;;;;;;;9.70;95.07;99656.50;2197567;81;20965;-81
2021/10/25 12:01:49;;;;;;;12.88;8.50;;;;;;;9.74;97.58;99655.70;2197451;81;21111;-81
2021/10/25 12:04:49;;;;;;;13.90;9.10;;;;;;;9.78;97.64;99649.18;2197375;81;21011;-81
2021/10/25 12:07:50;;;;;;;13.58;8.53;;;;;;;9.82;96.35;99642.69;2197497;81;21026;-81
2021/10/25 12:10:53;;;;;;;15.05;8.15;;;;;;;9.86;97.04;99641.40;2197479;81;20995;-81
2021/10/25 12:13:54;;;;;;;13.15;6.40;;;;;;;9.88;96.14;99642.91;2197488;81;21071;-81
2021/10/25 12:16:55;;;;;;;7.08;6.08;;;;;;;9.92;93.88;99640.31;2197584;81;21007;-81
2021/10/25 12:19:56;;;;;;;9.70;6.87;;;;;;;9.96;94.00;99640.81;2197451;81;20991;-81
2021/10/25 12:22:57;;;;;;;9.30;6.42;;;;;;;10.00;94.19;99636.12;2197356;81;21071;-81
2021/10/25 12:25:57;;;;;;;12.58;7.55;;;;;;;10.04;93.17;99632.20;2197579;81;21535;-81
2021/10/25 12:28:58;;;;;;;10.53;6.67;;;;;;;10.07;91.96;99622.27;2197944;81;21050;-81
2021/10/25 12:31:59;;;;;;;13.25;6.75;;;;;;;10.12;92.61;99618.69;2197320;81;21054;-81
2021/10/25 12:35:01;;;;;;;10.88;7.47;;;;;;;10.16;91.32;99620.53;2197619;81;20956;-81
2021/10/25 12:38:02;;;;;;;10.93;7.30;;;;;;;10.18;92.60;99607.61;2197385;81;21036;-81
2021/10/25 12:41:03;;;;;;;11.83;7.45;;;;;;;10.22;91.40;99610.27;2197560;81;20975;-82
2021/10/25 12:44:04;;;;;;;11.97;7.33;;;;;;;10.25;90.90;99600.81;2193240;81;21150;-82
2021/10/25 12:47:05;;;;;;;13.50;7.72;;;;;;;10.28;91.37;99600.17;2190410;81;21015;-81
2021/10/25 12:50:07;;;;;;;12.23;8.05;;;;;;;10.29;91.08;99602.63;2190257;81;21503;-80
2021/10/25 12:53:08;;;;;;;14.05;8.50;;;;;;;10.31;90.82;99601.97;2190090;81;21044;-81
2021/10/25 12:56:08;;;;;;;9.98;7.65;;;;;;;10.34;90.15;99601.68;2190198;81;21019;-81
2021/10/25 12:59:10;;;;;;;11.43;8.13;;;;;;;10.36;89.89;99595.80;2190243;81;21024;-82
2021/10/25 13:02:11;;;;;;;12.53;7.80;;;;;;;10.37;88.54;99600.54;2190018;81;21619;-81
2021/10/25 13:05:13;;;;;;;13.75;7.78;;;;;;;10.39;89.82;99584.18;2189888;81;21522;-81
2021/10/25 13:08:14;;;;;;;15.68;8.48;;;;;;;10.40;89.21;99585.33;2190208;81;20996;-81
2021/10/25 13:11:15;;;;;;;12.20;8.00;;;;;;;10.42;88.79;99587.33;2190354;81;21030;-81
2021/10/25 13:14:16;;;;;;;19.32;8.03;;;;;;;10.43;88.80;99575.05;2190830;81;21055;-82
2021/10/25 13:17:18;;;;;;;11.70;8.10;;;;;;;10.43;88.28;99569.33;2190355;81;21021;-81
2021/10/25 13:20:21;;;;;;;13.05;8.53;;;;;;;10.45;88.54;99574.40;2190475;81;21107;-81
2021/10/25 13:23:22;;;;;;;12.68;9.03;;;;;;;10.45;88.46;99567.85;2190298;81;21071;-82
2021/10/25 13:26:26;;;;;;;12.18;7.85;;;;;;;10.46;87.95;99565.56;2190383;81;21071;-82
2021/10/25 13:29:26;;;;;;;13.00;7.78;;;;;;;10.47;88.83;99560.66;2190501;80;20976;-81
2021/10/25 13:32:27;;;;;;;13.70;8.70;;;;;;;10.46;88.83;99563.77;2190241;81;21015;-82
2021/10/25 13:35:27;;;;;;;15.10;8.10;;;;;;;10.46;88.85;99557.22;2190288;81;20960;-82
2021/10/25 13:38:29;;;;;;;10.65;8.08;;;;;;;10.46;88.39;99555.91;2190299;81;21127;-81
2021/10/25 13:41:30;;;;;;;15.03;7.62;;;;;;;10.46;87.58;99552.47;2190373;81;21038;-81
2021/10/25 13:44:31;;;;;;;12.90;7.58;;;;;;;10.46;88.20;99556.40;2199921;81;21106;-82
2021/10/25 13:47:32;;;;;;;11.15;7.53;;;;;;;10.44;87.79;99544.78;2207010;81;21023;-81
2021/10/25 13:50:33;;;;;;;9.98;6.83;;;;;;;10.46;87.67;99543.31;2206892;81;21086;-81
2021/10/25 13:53:34;;;;;;;10.28;6.42;;;;;;;10.45;87.62;99539.05;2206896;81;20974;-81
2021/10/25 13:56:35;;;;;;;11.95;7.55;;;;;;;10.44;87.15;99533.00;2206767;81;21014;-82
2021/10/25 13:59:38;;;;;;;9.23;6.47;;;;;;;10.43;86.98;99535.29;2206894;81;21587;-82
2021/10/25 14:02:40;;;;;;;8.48;6.75;;;;;;;10.42;86.80;99521.87;2206777;81;21077;-82
2021/10/25 14:05:41;;;;;;;15.32;8.28;;;;;;;10.40;86.33;99525.11;2206569;81;21058;-81
2021/10/25 14:08:43;;;;;;;12.20;7.37;;;;;;;10.39;86.54;99522.17;2207595;81;21070;-79
2021/10/25 14:11:46;;;;;;;8.60;7.08;;;;;;;10.38;86.89;99523.15;2206762;81;21039;-80
2021/10/25 14:14:50;;;;;;;10.93;7.85;;;;;;;10.35;87.25;99516.94;2206619;80;21577;-80
2021/10/25 14:17:54;;;;;;;9.83;7.10;;;;;;;10.32;87.17;99515.10;2206352;81;20995;-80
2021/10/25 14:20:52;;;;;;;11.00;6.87;;;;;;;10.29;86.08;99512.81;2206044;81;20994;-81
2021/10/25 14:23:53;;;;;;;9.00;6.15;;;;;;;10.27;86.02;99506.92;2206867;81;20991;-80
2021/10/25 14:26:54;;;;;;;12.50;6.75;;;;;;;10.26;83.77;99499.56;2206812;81;22159;-80
2021/10/25 14:29:56;;;;;;;12.20;7.60;;;;;;;10.23;85.67;99501.98;2207033;81;20989;-80
2021/10/25 14:32:57;;;;;;;11.88;7.33;;;;;;;10.21;85.46;99499.98;2206999;81;21573;-81
2021/10/25 14:35:57;;;;;;;12.18;6.62;;;;;;;10.19;86.58;99496.72;2206955;81;20955;-80
2021/10/25 14:39:16;;;;;;;11.97;7.90;;;;;;;10.16;86.24;99490.50;2206808;81;21015;-80
2021/10/25 14:42:23;;;;;;;10.53;7.70;;;;;;;10.11;87.25;99494.06;2205887;81;21030;-80
2021/10/25 14:45:26;;;;;;;14.30;8.80;;;;;;;10.04;86.45;99489.61;2205386;81;21114;-81
2021/10/25 14:48:37;;;;;;;12.90;8.80;;;;;;;9.97;86.92;99488.13;2206515;80;21496;-83
2021/10/25 14:54:53;;;;;;;13.68;8.15;;;;;;;9.83;86.87;99493.94;2206837;81;20996;-81
2021/10/25 14:57:51;;;;;;;14.87;9.30;;;;;;;9.75;86.80;99480.81;2206461;81;21061;-81
2021/10/25 15:00:54;;;;;;;12.80;8.45;;;;;;;9.66;86.83;99483.37;2206773;81;21502;-81
2021/10/25 15:03:54;;;;;;;13.90;9.00;;;;;;;9.57;86.99;99477.77;2207091;81;21033;-80
2021/10/25 15:06:55;;;;;;;13.78;8.15;;;;;;;9.47;87.28;99471.83;2206925;81;20955;-81
2021/10/25 15:09:56;;;;;;;16.32;8.93;;;;;;;9.37;87.13;99465.88;2207002;81;20990;-81
2021/10/25 15:12:57;;;;;;;13.20;8.48;;;;;;;9.26;87.29;99463.53;2206928;81;21046;-80
2021/10/25 15:15:58;;;;;;;15.05;9.30;;;;;;;9.16;87.53;99465.41;2207159;81;20991;-81
2021/10/25 15:18:59;;;;;;;15.28;9.25;;;;;;;9.06;87.79;99470.24;2206973;81;21140;-81
2021/10/25 15:21:59;;;;;;;16.05;9.60;;;;;;;8.95;87.97;99470.94;2206730;81;20987;-81
2021/10/25 15:25:00;;;;;;;15.25;9.33;;;;;;;8.83;88.04;99467.27;2206994;81;21030;-80
2021/10/25 15:28:01;;;;;;;17.32;10.63;;;;;;;8.72;88.51;99461.45;2206863;81;21070;-81
2021/10/25 15:31:02;;;;;;;18.80;10.03;;;;;;;8.63;88.69;99471.00;2207419;81;21055;-81
2021/10/25 15:34:03;;;;;;;18.17;9.78;;;;;;;8.52;88.96;99466.00;2207088;81;21006;-81